sensor_id;sensor_type;location;lat;lon;timestamp;pressure;altitude;pressure_sealevel;temperature;humidity
49827;BME280;35715;51.570;6.036;2023-08-01T00:01:50;99746.78;;;17.90;100.00
49827;BME280;35715;51.570;6.036;2023-08-01T00:04:15;99745.06;;;17.90;100.00
49827;BME280;35715;51.570;6.036;2023-08-01T00:06:41;99744.19;;;17.90;100.00
49827;BME280;35715;51.570;6.036;2023-08-01T00:09:06;99740.69;;;17.91;100.00
49827;BME280;35715;51.570;6.036;2023-08-01T00:11:32;99752.91;;;17.92;100.00
49827;BME280;35715;51.570;6.036;2023-08-01T00:13:57;99755.53;;;17.92;100.00
49827;BME280;35715;51.570;6.036;2023-08-01T00:16:23;99752.94;;;17.94;100.00
49827;BME280;35715;51.570;6.036;2023-08-01T00:18:49;99739.84;;;17.90;100.00
49827;BME280;35715;51.570;6.036;2023-08-01T00:21:15;99746.03;;;17.96;100.00
49827;BME280;35715;51.570;6.036;2023-08-01T00:23:40;99737.41;;;18.00;100.00
49827;BME280;35715;51.570;6.036;2023-08-01T00:26:06;99728.69;;;17.99;100.00
49827;BME280;35715;51.570;6.036;2023-08-01T00:28:31;99724.34;;;18.00;100.00
49827;BME280;35715;51.570;6.036;2023-08-01T00:31:04;99719.13;;;18.00;100.00
49827;BME280;35715;51.570;6.036;2023-08-01T00:33:30;99716.50;;;17.98;100.00
49827;BME280;35715;51.570;6.036;2023-08-01T00:35:55;99717.44;;;18.02;100.00
49827;BME280;35715;51.570;6.036;2023-08-01T00:38:21;99732.25;;;18.03;100.00
49827;BME280;35715;51.570;6.036;2023-08-01T00:40:46;99717.38;;;17.99;100.00
49827;BME280;35715;51.570;6.036;2023-08-01T00:43:12;99708.69;;;18.00;100.00
49827;BME280;35715;51.570;6.036;2023-08-01T00:45:37;99711.22;;;17.95;100.00
49827;BME280;35715;51.570;6.036;2023-08-01T00:48:03;99721.63;;;17.94;100.00
49827;BME280;35715;51.570;6.036;2023-08-01T00:50:29;99708.50;;;17.90;100.00
49827;BME280;35715;51.570;6.036;2023-08-01T00:52:54;99714.56;;;17.89;100.00
49827;BME280;35715;51.570;6.036;2023-08-01T00:55:21;99704.94;;;17.87;100.00
49827;BME280;35715;51.570;6.036;2023-08-01T00:57:47;99702.28;;;17.84;100.00
49827;BME280;35715;51.570;6.036;2023-08-01T01:00:13;99697.00;;;17.81;100.00
49827;BME280;35715;51.570;6.036;2023-08-01T01:02:39;99683.91;;;17.78;100.00
49827;BME280;35715;51.570;6.036;2023-08-01T01:05:04;99696.94;;;17.78;100.00
49827;BME280;35715;51.570;6.036;2023-08-01T01:07:31;99701.22;;;17.76;100.00
49827;BME280;35715;51.570;6.036;2023-08-01T01:09:57;99689.91;;;17.75;100.00
49827;BME280;35715;51.570;6.036;2023-08-01T01:12:23;99693.41;;;17.76;100.00
49827;BME280;35715;51.570;6.036;2023-08-01T01:14:48;99695.19;;;17.78;100.00
49827;BME280;35715;51.570;6.036;2023-08-01T01:17:14;99697.00;;;17.81;100.00
49827;BME280;35715;51.570;6.036;2023-08-01T01:19:40;99691.78;;;17.81;100.00
49827;BME280;35715;51.570;6.036;2023-08-01T01:22:06;99694.34;;;17.78;100.00
49827;BME280;35715;51.570;6.036;2023-08-01T01:24:33;99689.06;;;17.74;100.00
49827;BME280;35715;51.570;6.036;2023-08-01T01:27:00;99698.50;;;17.69;100.00
49827;BME280;35715;51.570;6.036;2023-08-01T01:29:29;99688.88;;;17.65;100.00
49827;BME280;35715;51.570;6.036;2023-08-01T01:31:55;99692.22;;;17.60;100.00
49827;BME280;35715;51.570;6.036;2023-08-01T01:34:21;99681.72;;;17.56;100.00
49827;BME280;35715;51.570;6.036;2023-08-01T01:36:47;99680.75;;;17.53;100.00
49827;BME280;35715;51.570;6.036;2023-08-01T01:39:12;99683.28;;;17.48;100.00
49827;BME280;35715;51.570;6.036;2023-08-01T01:41:38;99680.56;;;17.44;100.00
49827;BME280;35715;51.570;6.036;2023-08-01T01:44:03;99679.66;;;17.40;100.00
49827;BME280;35715;51.570;6.036;2023-08-01T01:46:28;99686.50;;;17.36;100.00
49827;BME280;35715;51.570;6.036;2023-08-01T01:48:54;99689.03;;;17.33;100.00
49827;BME280;35715;51.570;6.036;2023-08-01T01:51:21;99691.63;;;17.32;100.00
49827;BME280;35715;51.570;6.036;2023-08-01T01:53:46;99683.75;;;17.30;100.00
49827;BME280;35715;51.570;6.036;2023-08-01T01:56:12;99690.72;;;17.30;100.00
49827;BME280;35715;51.570;6.036;2023-08-01T01:58:37;99682.84;;;17.27;100.00
49827;BME280;35715;51.570;6.036;2023-08-01T02:01:03;99677.56;;;17.24;100.00
49827;BME280;35715;51.570;6.036;2023-08-01T02:03:28;99683.53;;;17.19;100.00
49827;BME280;35715;51.570;6.036;2023-08-01T02:05:53;99689.50;;;17.14;100.00
49827;BME280;35715;51.570;6.036;2023-08-01T02:08:19;99692.13;;;17.14;100.00
49827;BME280;35715;51.570;6.036;2023-08-01T02:10:44;99691.28;;;17.16;100.00
49827;BME280;35715;51.570;6.036;2023-08-01T02:13:10;99687.00;;;17.18;100.00
49827;BME280;35715;51.570;6.036;2023-08-01T02:15:35;99686.06;;;17.16;100.00
49827;BME280;35715;51.570;6.036;2023-08-01T02:18:00;99679.13;;;17.15;100.00
49827;BME280;35715;51.570;6.036;2023-08-01T02:20:26;99675.66;;;17.16;100.00
49827;BME280;35715;51.570;6.036;2023-08-01T02:22:52;99680.94;;;17.19;100.00
49827;BME280;35715;51.570;6.036;2023-08-01T02:25:17;99680.97;;;17.21;100.00
49827;BME280;35715;51.570;6.036;2023-08-01T02:27:43;99675.75;;;17.21;100.00
49827;BME280;35715;51.570;6.036;2023-08-01T02:30:08;99681.00;;;17.23;100.00
49827;BME280;35715;51.570;6.036;2023-08-01T02:32:34;99677.41;;;17.17;100.00
49827;BME280;35715;51.570;6.036;2023-08-01T02:34:59;99690.22;;;17.07;100.00
49827;BME280;35715;51.570;6.036;2023-08-01T02:37:24;99692.75;;;17.03;100.00
49827;BME280;35715;51.570;6.036;2023-08-01T02:39:50;99692.66;;;16.99;100.00
49827;BME280;35715;51.570;6.036;2023-08-01T02:42:15;99691.69;;;16.95;100.00
49827;BME280;35715;51.570;6.036;2023-08-01T02:44:41;99703.00;;;16.96;100.00
49827;BME280;35715;51.570;6.036;2023-08-01T02:47:06;99701.13;;;16.90;100.00
49827;BME280;35715;51.570;6.036;2023-08-01T02:49:32;99709.59;;;16.83;100.00
49827;BME280;35715;51.570;6.036;2023-08-01T02:51:57;99708.63;;;16.78;100.00
49827;BME280;35715;51.570;6.036;2023-08-01T02:54:27;99712.16;;;16.81;100.00
49827;BME280;35715;51.570;6.036;2023-08-01T02:56:52;99707.88;;;16.83;100.00
49827;BME280;35715;51.570;6.036;2023-08-01T02:59:18;99709.66;;;16.86;100.00
49827;BME280;35715;51.570;6.036;2023-08-01T03:01:43;99715.81;;;16.87;100.00
49827;BME280;35715;51.570;6.036;2023-08-01T03:04:09;99714.13;;;16.89;100.00
49827;BME280;35715;51.570;6.036;2023-08-01T03:06:36;99712.44;;;16.92;100.00
49827;BME280;35715;51.570;6.036;2023-08-01T03:09:02;99711.34;;;16.82;100.00
49827;BME280;35715;51.570;6.036;2023-08-01T03:11:27;99709.44;;;16.77;100.00
49827;BME280;35715;51.570;6.036;2023-08-01T03:13:53;99713.84;;;16.78;100.00
49827;BME280;35715;51.570;6.036;2023-08-01T03:16:18;99708.72;;;16.82;100.00
49827;BME280;35715;51.570;6.036;2023-08-01T03:18:43;99712.34;;;16.88;100.00
49827;BME280;35715;51.570;6.036;2023-08-01T03:21:09;99711.50;;;16.89;100.00
49827;BME280;35715;51.570;6.036;2023-08-01T03:23:35;99709.81;;;16.91;100.00
49827;BME280;35715;51.570;6.036;2023-08-01T03:26:00;99707.28;;;16.94;100.00
49827;BME280;35715;51.570;6.036;2023-08-01T03:28:26;99711.59;;;16.92;100.00
49827;BME280;35715;51.570;6.036;2023-08-01T03:30:52;99711.50;;;16.89;100.00
49827;BME280;35715;51.570;6.036;2023-08-01T03:33:19;99706.31;;;16.89;100.00
49827;BME280;35715;51.570;6.036;2023-08-01T03:35:44;99708.00;;;16.87;100.00
49827;BME280;35715;51.570;6.036;2023-08-01T03:38:10;99702.81;;;16.88;100.00
49827;BME280;35715;51.570;6.036;2023-08-01T03:40:35;99712.34;;;16.88;100.00
49827;BME280;35715;51.570;6.036;2023-08-01T03:43:01;99717.56;;;16.88;100.00
49827;BME280;35715;51.570;6.036;2023-08-01T03:45:26;99707.16;;;16.89;100.00
49827;BME280;35715;51.570;6.036;2023-08-01T03:47:52;99704.56;;;16.89;100.00
49827;BME280;35715;51.570;6.036;2023-08-01T03:50:17;99712.38;;;16.89;100.00
49827;BME280;35715;51.570;6.036;2023-08-01T03:52:42;99708.91;;;16.89;100.00
49827;BME280;35715;51.570;6.036;2023-08-01T03:55:08;99707.88;;;16.83;100.00
49827;BME280;35715;51.570;6.036;2023-08-01T03:57:34;99710.50;;;16.85;100.00
49827;BME280;35715;51.570;6.036;2023-08-01T03:59:59;99716.69;;;16.87;100.00
49827;BME280;35715;51.570;6.036;2023-08-01T04:02:25;99716.63;;;16.85;100.00
49827;BME280;35715;51.570;6.036;2023-08-01T04:04:50;99711.38;;;16.84;100.00
49827;BME280;35715;51.570;6.036;2023-08-01T04:07:16;99717.44;;;16.84;100.00
49827;BME280;35715;51.570;6.036;2023-08-01T04:09:41;99717.38;;;16.81;100.00
49827;BME280;35715;51.570;6.036;2023-08-01T04:12:07;99715.69;;;16.83;100.00
49827;BME280;35715;51.570;6.036;2023-08-01T04:14:33;99720.94;;;16.85;100.00
49827;BME280;35715;51.570;6.036;2023-08-01T04:16:59;99720.81;;;16.80;100.00
49827;BME280;35715;51.570;6.036;2023-08-01T04:19:24;99718.25;;;16.82;100.00
49827;BME280;35715;51.570;6.036;2023-08-01T04:21:50;99724.41;;;16.84;100.00
49827;BME280;35715;51.570;6.036;2023-08-01T04:24:15;99721.06;;;16.88;100.00
49827;BME280;35715;51.570;6.036;2023-08-01T04:26:41;99726.34;;;16.91;100.00
49827;BME280;35715;51.570;6.036;2023-08-01T04:29:06;99723.75;;;16.91;100.00
49827;BME280;35715;51.570;6.036;2023-08-01T04:31:32;99723.03;;;16.98;100.00
49827;BME280;35715;51.570;6.036;2023-08-01T04:33:57;99727.38;;;16.98;100.00
49827;BME280;35715;51.570;6.036;2023-08-01T04:36:22;99728.16;;;16.95;100.00
49827;BME280;35715;51.570;6.036;2023-08-01T04:38:48;99724.72;;;16.96;100.00
49827;BME280;35715;51.570;6.036;2023-08-01T04:41:13;99724.78;;;16.99;100.00
49827;BME280;35715;51.570;6.036;2023-08-01T04:43:39;99730.94;;;17.03;100.00
49827;BME280;35715;51.570;6.036;2023-08-01T04:46:04;99728.38;;;17.05;100.00
49827;BME280;35715;51.570;6.036;2023-08-01T04:48:29;99735.25;;;17.01;100.00
49827;BME280;35715;51.570;6.036;2023-08-01T04:50:55;99730.88;;;17.00;100.00
49827;BME280;35715;51.570;6.036;2023-08-01T04:53:20;99730.06;;;17.02;100.00
49827;BME280;35715;51.570;6.036;2023-08-01T04:55:46;99727.53;;;17.06;100.00
49827;BME280;35715;51.570;6.036;2023-08-01T04:58:11;99729.28;;;17.05;100.00
49827;BME280;35715;51.570;6.036;2023-08-01T05:00:37;99737.16;;;17.08;100.00
49827;BME280;35715;51.570;6.036;2023-08-01T05:03:03;99731.13;;;17.11;100.00
49827;BME280;35715;51.570;6.036;2023-08-01T05:05:28;99735.38;;;17.07;100.00
49827;BME280;35715;51.570;6.036;2023-08-01T05:07:54;99742.38;;;17.08;100.00
49827;BME280;35715;51.570;6.036;2023-08-01T05:10:19;99739.81;;;17.10;100.00
49827;BME280;35715;51.570;6.036;2023-08-01T05:12:44;99738.03;;;17.09;100.00
49827;BME280;35715;51.570;6.036;2023-08-01T05:15:10;99738.94;;;17.11;100.00
49827;BME280;35715;51.570;6.036;2023-08-01T05:17:35;99740.66;;;17.10;100.00
49827;BME280;35715;51.570;6.036;2023-08-01T05:20:01;99747.75;;;17.16;100.00
49827;BME280;35715;51.570;6.036;2023-08-01T05:22:28;99744.31;;;17.17;100.00
49827;BME280;35715;51.570;6.036;2023-08-01T05:24:53;99742.72;;;17.24;100.00
49827;BME280;35715;51.570;6.036;2023-08-01T05:27:19;99753.34;;;17.33;100.00
49827;BME280;35715;51.570;6.036;2023-08-01T05:29:44;99748.28;;;17.39;100.00
49827;BME280;35715;51.570;6.036;2023-08-01T05:32:09;99751.03;;;17.45;100.00
49827;BME280;35715;51.570;6.036;2023-08-01T05:34:35;99754.50;;;17.44;100.00
49827;BME280;35715;51.570;6.036;2023-08-01T05:37:00;99757.03;;;17.41;100.00
49827;BME280;35715;51.570;6.036;2023-08-01T05:39:25;99758.78;;;17.42;100.00
49827;BME280;35715;51.570;6.036;2023-08-01T05:41:51;99753.50;;;17.39;100.00
49827;BME280;35715;51.570;6.036;2023-08-01T05:44:16;99751.81;;;17.41;100.00
49827;BME280;35715;51.570;6.036;2023-08-01T05:46:41;99756.31;;;17.48;100.00
49827;BME280;35715;51.570;6.036;2023-08-01T05:49:07;99749.63;;;17.61;100.00
49827;BME280;35715;51.570;6.036;2023-08-01T05:51:32;99759.94;;;17.55;100.00
49827;BME280;35715;51.570;6.036;2023-08-01T05:53:58;99751.28;;;17.58;100.00
49827;BME280;35715;51.570;6.036;2023-08-01T05:56:23;99754.81;;;17.60;100.00
49827;BME280;35715;51.570;6.036;2023-08-01T05:58:48;99761.72;;;17.58;100.00
49827;BME280;35715;51.570;6.036;2023-08-01T06:01:15;99760.81;;;17.55;100.00
49827;BME280;35715;51.570;6.036;2023-08-01T06:03:41;99753.09;;;17.60;100.00
49827;BME280;35715;51.570;6.036;2023-08-01T06:06:08;99751.50;;;17.67;100.00
49827;BME280;35715;51.570;6.036;2023-08-01T06:08:33;99757.66;;;17.70;100.00
49827;BME280;35715;51.570;6.036;2023-08-01T06:10:58;99759.50;;;17.74;100.00
49827;BME280;35715;51.570;6.036;2023-08-01T06:13:24;99765.72;;;17.81;100.00
49827;BME280;35715;51.570;6.036;2023-08-01T06:15:49;99762.28;;;17.84;100.00
49827;BME280;35715;51.570;6.036;2023-08-01T06:18:15;99770.16;;;17.85;100.00
49827;BME280;35715;51.570;6.036;2023-08-01T06:20:43;99774.78;;;17.97;100.00
49827;BME280;35715;51.570;6.036;2023-08-01T06:23:08;99774.72;;;17.94;100.00
49827;BME280;35715;51.570;6.036;2023-08-01T06:25:34;99764.19;;;17.91;100.00
49827;BME280;35715;51.570;6.036;2023-08-01T06:27:59;99777.31;;;17.93;100.00
49827;BME280;35715;51.570;6.036;2023-08-01T06:30:25;99785.03;;;17.89;100.00
49827;BME280;35715;51.570;6.036;2023-08-01T06:32:51;99781.50;;;17.87;100.00
49827;BME280;35715;51.570;6.036;2023-08-01T06:35:16;99784.38;;;18.00;100.00
49827;BME280;35715;51.570;6.036;2023-08-01T06:37:41;99781.31;;;18.21;100.00
49827;BME280;35715;51.570;6.036;2023-08-01T06:40:07;99788.22;;;18.65;100.00
49827;BME280;35715;51.570;6.036;2023-08-01T06:42:33;99786.31;;;18.56;100.00
49827;BME280;35715;51.570;6.036;2023-08-01T06:44:59;99788.84;;;18.51;100.00
49827;BME280;35715;51.570;6.036;2023-08-01T06:47:24;99796.09;;;18.66;100.00
49827;BME280;35715;51.570;6.036;2023-08-01T06:49:50;99785.47;;;18.57;100.00
49827;BME280;35715;51.570;6.036;2023-08-01T06:52:15;99791.66;;;18.62;100.00
49827;BME280;35715;51.570;6.036;2023-08-01T06:54:40;99785.50;;;18.58;100.00
49827;BME280;35715;51.570;6.036;2023-08-01T06:57:06;99785.66;;;18.68;100.00
49827;BME280;35715;51.570;6.036;2023-08-01T06:59:32;99784.66;;;18.59;99.91
49827;BME280;35715;51.570;6.036;2023-08-01T07:01:58;99786.47;;;18.63;100.00
49827;BME280;35715;51.570;6.036;2023-08-01T07:04:23;99782.66;;;18.93;99.72
49827;BME280;35715;51.570;6.036;2023-08-01T07:06:49;99785.16;;;18.87;98.44
49827;BME280;35715;51.570;6.036;2023-08-01T07:09:14;99788.63;;;18.86;98.76
49827;BME280;35715;51.570;6.036;2023-08-01T07:11:40;99779.41;;;19.08;98.42
49827;BME280;35715;51.570;6.036;2023-08-01T07:14:06;99791.94;;;19.91;96.08
49827;BME280;35715;51.570;6.036;2023-08-01T07:16:31;99790.50;;;20.16;93.82
49827;BME280;35715;51.570;6.036;2023-08-01T07:18:59;99795.50;;;20.74;91.14
49827;BME280;35715;51.570;6.036;2023-08-01T07:21:25;99802.19;;;21.41;87.49
49827;BME280;35715;51.570;6.036;2023-08-01T07:23:50;99796.41;;;22.04;83.19
49827;BME280;35715;51.570;6.036;2023-08-01T07:26:15;99795.72;;;22.63;81.87
49827;BME280;35715;51.570;6.036;2023-08-01T07:28:41;99794.00;;;22.70;78.88
49827;BME280;35715;51.570;6.036;2023-08-01T07:31:07;99796.44;;;22.10;79.38
49827;BME280;35715;51.570;6.036;2023-08-01T07:33:33;99803.19;;;21.60;80.40
49827;BME280;35715;51.570;6.036;2023-08-01T07:35:59;99818.72;;;21.31;80.26
49827;BME280;35715;51.570;6.036;2023-08-01T07:38:25;99808.84;;;22.45;78.16
49827;BME280;35715;51.570;6.036;2023-08-01T07:40:52;99813.03;;;22.03;76.77
49827;BME280;35715;51.570;6.036;2023-08-01T07:43:18;99808.50;;;21.69;76.98
49827;BME280;35715;51.570;6.036;2023-08-01T07:45:44;99810.16;;;21.52;78.62
49827;BME280;35715;51.570;6.036;2023-08-01T07:48:10;99820.47;;;21.32;79.42
49827;BME280;35715;51.570;6.036;2023-08-01T07:50:35;99810.84;;;21.27;79.21
49827;BME280;35715;51.570;6.036;2023-08-01T07:53:00;99811.59;;;21.13;79.29
49827;BME280;35715;51.570;6.036;2023-08-01T07:55:26;99813.06;;;20.81;80.75
49827;BME280;35715;51.570;6.036;2023-08-01T07:57:51;99817.16;;;20.56;81.87
49827;BME280;35715;51.570;6.036;2023-08-01T08:00:16;99812.94;;;20.69;81.79
49827;BME280;35715;51.570;6.036;2023-08-01T08:02:42;99810.34;;;21.89;78.29
49827;BME280;35715;51.570;6.036;2023-08-01T08:05:08;99813.09;;;22.13;76.71
49827;BME280;35715;51.570;6.036;2023-08-01T08:07:34;99804.53;;;23.16;72.26
49827;BME280;35715;51.570;6.036;2023-08-01T08:10:00;99810.50;;;24.14;69.84
49827;BME280;35715;51.570;6.036;2023-08-01T08:12:25;99812.75;;;24.85;66.07
49827;BME280;35715;51.570;6.036;2023-08-01T08:14:50;99815.81;;;24.03;66.32
49827;BME280;35715;51.570;6.036;2023-08-01T08:17:16;99808.94;;;23.24;67.05
49827;BME280;35715;51.570;6.036;2023-08-01T08:19:41;99808.91;;;22.68;67.98
49827;BME280;35715;51.570;6.036;2023-08-01T08:22:07;99803.56;;;22.40;68.67
49827;BME280;35715;51.570;6.036;2023-08-01T08:24:32;99810.47;;;22.13;70.56
49827;BME280;35715;51.570;6.036;2023-08-01T08:26:57;99807.13;;;22.70;70.29
49827;BME280;35715;51.570;6.036;2023-08-01T08:29:23;99808.91;;;22.70;69.75
49827;BME280;35715;51.570;6.036;2023-08-01T08:31:48;99815.06;;;23.46;68.23
49827;BME280;35715;51.570;6.036;2023-08-01T08:34:14;99808.94;;;23.48;67.93
49827;BME280;35715;51.570;6.036;2023-08-01T08:36:39;99807.69;;;24.47;65.07
49827;BME280;35715;51.570;6.036;2023-08-01T08:39:05;99811.47;;;23.87;65.27
49827;BME280;35715;51.570;6.036;2023-08-01T08:41:39;99808.06;;;22.94;65.25
49827;BME280;35715;51.570;6.036;2023-08-01T08:44:08;99813.25;;;22.57;68.37
49827;BME280;35715;51.570;6.036;2023-08-01T08:46:43;99807.97;;;22.50;68.12
49827;BME280;35715;51.570;6.036;2023-08-01T08:49:08;99810.69;;;22.98;68.42
49827;BME280;35715;51.570;6.036;2023-08-01T08:51:36;99807.16;;;23.04;66.61
49827;BME280;35715;51.570;6.036;2023-08-01T08:54:01;99810.69;;;22.98;66.68
49827;BME280;35715;51.570;6.036;2023-08-01T08:56:28;99805.38;;;22.61;66.92
49827;BME280;35715;51.570;6.036;2023-08-01T08:58:53;99810.59;;;22.40;67.93
49827;BME280;35715;51.570;6.036;2023-08-01T09:01:19;99814.94;;;22.35;67.25
49827;BME280;35715;51.570;6.036;2023-08-01T09:03:44;99812.41;;;23.02;66.57
49827;BME280;35715;51.570;6.036;2023-08-01T09:06:16;99807.78;;;24.30;62.19
49827;BME280;35715;51.570;6.036;2023-08-01T09:08:56;99814.94;;;24.07;61.15
49827;BME280;35715;51.570;6.036;2023-08-01T09:11:25;99803.56;;;23.90;61.61
49827;BME280;35715;51.570;6.036;2023-08-01T09:13:51;99805.34;;;23.77;60.02
49827;BME280;35715;51.570;6.036;2023-08-01T09:16:16;99809.59;;;24.17;60.00
49827;BME280;35715;51.570;6.036;2023-08-01T09:18:51;99814.94;;;23.95;58.09
49827;BME280;35715;51.570;6.036;2023-08-01T09:21:18;99809.81;;;23.35;61.13
49827;BME280;35715;51.570;6.036;2023-08-01T09:23:44;99823.78;;;22.84;62.66
49827;BME280;35715;51.570;6.036;2023-08-01T09:26:13;99829.03;;;22.69;64.81
49827;BME280;35715;51.570;6.036;2023-08-01T09:28:39;99844.75;;;22.41;66.11
49827;BME280;35715;51.570;6.036;2023-08-01T09:31:05;99835.03;;;22.28;66.46
49827;BME280;35715;51.570;6.036;2023-08-01T09:33:40;99833.22;;;22.13;65.61
49827;BME280;35715;51.570;6.036;2023-08-01T09:36:07;99847.19;;;22.07;66.35
49827;BME280;35715;51.570;6.036;2023-08-01T09:38:37;99853.31;;;21.98;67.42
49827;BME280;35715;51.570;6.036;2023-08-01T09:41:03;99850.63;;;21.89;67.33
49827;BME280;35715;51.570;6.036;2023-08-01T09:43:36;99855.78;;;21.75;66.79
49827;BME280;35715;51.570;6.036;2023-08-01T09:46:06;99847.91;;;21.75;67.69
49827;BME280;35715;51.570;6.036;2023-08-01T09:48:32;99866.41;;;21.89;67.85
49827;BME280;35715;51.570;6.036;2023-08-01T09:51:23;99862.75;;;21.66;66.85
49827;BME280;35715;51.570;6.036;2023-08-01T09:53:51;99871.53;;;21.75;67.80
49827;BME280;35715;51.570;6.036;2023-08-01T09:56:24;99863.63;;;21.69;67.82
49827;BME280;35715;51.570;6.036;2023-08-01T09:58:51;99868.97;;;21.83;67.53
49827;BME280;35715;51.570;6.036;2023-08-01T10:01:21;99871.59;;;21.85;67.79
49827;BME280;35715;51.570;6.036;2023-08-01T10:03:48;99869.94;;;21.96;68.13
49827;BME280;35715;51.570;6.036;2023-08-01T10:06:18;99875.19;;;21.96;68.33
49827;BME280;35715;51.570;6.036;2023-08-01T10:08:44;99877.75;;;21.88;69.37
49827;BME280;35715;51.570;6.036;2023-08-01T10:11:12;99874.28;;;21.89;69.30
49827;BME280;35715;51.570;6.036;2023-08-01T10:13:38;99881.22;;;21.79;69.79
49827;BME280;35715;51.570;6.036;2023-08-01T10:16:03;99885.59;;;21.79;70.21
49827;BME280;35715;51.570;6.036;2023-08-01T10:18:31;99878.47;;;21.61;69.64
49827;BME280;35715;51.570;6.036;2023-08-01T10:20:57;99883.72;;;21.64;71.02
49827;BME280;35715;51.570;6.036;2023-08-01T10:23:24;99887.31;;;21.80;70.34
49827;BME280;35715;51.570;6.036;2023-08-01T10:25:50;99883.91;;;21.95;70.10
49827;BME280;35715;51.570;6.036;2023-08-01T10:28:15;99891.97;;;22.21;69.69
49827;BME280;35715;51.570;6.036;2023-08-01T10:30:41;99885.09;;;22.59;68.14
49827;BME280;35715;51.570;6.036;2023-08-01T10:33:09;99886.00;;;22.58;66.37
49827;BME280;35715;51.570;6.036;2023-08-01T10:35:39;99883.31;;;22.42;66.76
49827;BME280;35715;51.570;6.036;2023-08-01T10:38:05;99898.09;;;22.26;67.34
49827;BME280;35715;51.570;6.036;2023-08-01T10:43:03;99899.53;;;21.70;67.86
49827;BME280;35715;51.570;6.036;2023-08-01T10:45:28;99896.09;;;21.77;68.45
49827;BME280;35715;51.570;6.036;2023-08-01T10:48:09;99889.94;;;21.78;66.98
49827;BME280;35715;51.570;6.036;2023-08-01T10:50:35;99896.28;;;22.13;67.16
49827;BME280;35715;51.570;6.036;2023-08-01T10:53:06;99888.72;;;23.84;62.71
49827;BME280;35715;51.570;6.036;2023-08-01T10:55:39;99880.25;;;25.14;59.00
49827;BME280;35715;51.570;6.036;2023-08-01T10:58:04;99890.88;;;26.12;58.56
49827;BME280;35715;51.570;6.036;2023-08-01T11:00:30;99879.25;;;26.92;55.07
49827;BME280;35715;51.570;6.036;2023-08-01T11:02:55;99884.75;;;27.36;53.08
49827;BME280;35715;51.570;6.036;2023-08-01T11:05:20;99888.25;;;27.88;51.89
49827;BME280;35715;51.570;6.036;2023-08-01T11:07:56;99885.03;;;27.17;51.13
49827;BME280;35715;51.570;6.036;2023-08-01T11:10:24;99879.53;;;26.70;51.39
49827;BME280;35715;51.570;6.036;2023-08-01T11:12:50;99884.06;;;25.88;51.76
49827;BME280;35715;51.570;6.036;2023-08-01T11:15:15;99893.38;;;25.25;53.44
49827;BME280;35715;51.570;6.036;2023-08-01T11:17:47;99894.56;;;24.79;55.17
49827;BME280;35715;51.570;6.036;2023-08-01T11:20:14;99901.72;;;24.51;56.37
49827;BME280;35715;51.570;6.036;2023-08-01T11:22:56;99889.53;;;24.19;55.02
49827;BME280;35715;51.570;6.036;2023-08-01T11:25:51;99901.91;;;24.00;57.11
49827;BME280;35715;51.570;6.036;2023-08-01T11:28:19;99899.25;;;23.80;56.91
49827;BME280;35715;51.570;6.036;2023-08-01T11:30:44;99901.91;;;23.90;56.99
49827;BME280;35715;51.570;6.036;2023-08-01T11:33:22;99910.69;;;23.83;57.17
49827;BME280;35715;51.570;6.036;2023-08-01T11:38:17;99917.72;;;23.64;57.82
49827;BME280;35715;51.570;6.036;2023-08-01T11:40:43;99916.84;;;23.73;57.81
49827;BME280;35715;51.570;6.036;2023-08-01T11:43:09;99919.44;;;24.13;57.36
49827;BME280;35715;51.570;6.036;2023-08-01T11:45:34;99907.63;;;24.99;56.15
49827;BME280;35715;51.570;6.036;2023-08-01T11:47:59;99912.91;;;26.09;53.10
49827;BME280;35715;51.570;6.036;2023-08-01T11:50:25;99909.22;;;26.94;50.77
49827;BME280;35715;51.570;6.036;2023-08-01T11:52:51;99912.78;;;27.49;49.41
49827;BME280;35715;51.570;6.036;2023-08-01T11:55:26;99912.41;;;28.21;47.47
49827;BME280;35715;51.570;6.036;2023-08-01T11:57:56;99923.50;;;28.83;46.37
49827;BME280;35715;51.570;6.036;2023-08-01T12:00:26;99913.72;;;28.42;41.97
49827;BME280;35715;51.570;6.036;2023-08-01T12:03:03;99920.03;;;27.39;44.29
49827;BME280;35715;51.570;6.036;2023-08-01T12:05:29;99922.09;;;26.52;47.10
49827;BME280;35715;51.570;6.036;2023-08-01T12:07:54;99925.28;;;26.06;48.75
49827;BME280;35715;51.570;6.036;2023-08-01T12:10:20;99926.78;;;25.33;49.33
49827;BME280;35715;51.570;6.036;2023-08-01T12:12:46;99931.41;;;24.94;50.29
49827;BME280;35715;51.570;6.036;2023-08-01T12:15:18;99925.41;;;24.66;50.87
49827;BME280;35715;51.570;6.036;2023-08-01T12:17:43;99932.50;;;24.58;52.27
49827;BME280;35715;51.570;6.036;2023-08-01T12:20:09;99934.28;;;24.42;52.14
49827;BME280;35715;51.570;6.036;2023-08-01T12:22:34;99939.59;;;24.30;52.46
49827;BME280;35715;51.570;6.036;2023-08-01T12:24:59;99932.59;;;24.15;52.91
49827;BME280;35715;51.570;6.036;2023-08-01T12:27:25;99937.84;;;24.18;53.59
49827;BME280;35715;51.570;6.036;2023-08-01T12:29:50;99930.84;;;24.20;53.03
49827;BME280;35715;51.570;6.036;2023-08-01T12:32:15;99928.13;;;24.40;52.82
49827;BME280;35715;51.570;6.036;2023-08-01T12:34:41;99929.88;;;24.45;53.99
49827;BME280;35715;51.570;6.036;2023-08-01T12:37:06;99932.50;;;24.47;53.36
49827;BME280;35715;51.570;6.036;2023-08-01T12:39:32;99943.91;;;24.52;53.58
49827;BME280;35715;51.570;6.036;2023-08-01T12:41:57;99941.31;;;24.41;52.48
49827;BME280;35715;51.570;6.036;2023-08-01T12:44:23;99934.28;;;24.36;52.75
49827;BME280;35715;51.570;6.036;2023-08-01T12:46:48;99945.78;;;24.24;52.73
49827;BME280;35715;51.570;6.036;2023-08-01T12:49:13;99951.03;;;24.33;53.76
49827;BME280;35715;51.570;6.036;2023-08-01T12:51:39;99937.75;;;24.62;53.08
49827;BME280;35715;51.570;6.036;2023-08-01T12:54:04;99943.03;;;24.56;52.22
49827;BME280;35715;51.570;6.036;2023-08-01T12:56:31;99939.53;;;24.47;51.47